sensor_id;sensor_type;location;lat;lon;timestamp;P1;durP1;ratioP1;P2;durP2;ratioP2
12896;SDS011;6516;35.028;32.372;2023-04-25T00:00:34;19.70;;;12.97;;
12896;SDS011;6516;35.028;32.372;2023-04-25T00:03:02;18.80;;;12.90;;
12896;SDS011;6516;35.028;32.372;2023-04-25T00:05:31;16.60;;;11.73;;
12896;SDS011;6516;35.028;32.372;2023-04-25T00:08:01;19.25;;;12.82;;
12896;SDS011;6516;35.028;32.372;2023-04-25T00:10:29;20.05;;;12.63;;
12896;SDS011;6516;35.028;32.372;2023-04-25T00:12:57;16.00;;;12.47;;
12896;SDS011;6516;35.028;32.372;2023-04-25T00:15:27;19.38;;;12.63;;
12896;SDS011;6516;35.028;32.372;2023-04-25T00:17:56;19.45;;;12.00;;
12896;SDS011;6516;35.028;32.372;2023-04-25T00:20:24;18.48;;;12.43;;
12896;SDS011;6516;35.028;32.372;2023-04-25T00:22:52;18.20;;;12.32;;
12896;SDS011;6516;35.028;32.372;2023-04-25T00:25:21;18.73;;;12.53;;
12896;SDS011;6516;35.028;32.372;2023-04-25T00:27:49;17.85;;;12.27;;
12896;SDS011;6516;35.028;32.372;2023-04-25T00:30:17;19.33;;;12.63;;
12896;SDS011;6516;35.028;32.372;2023-04-25T00:32:45;19.60;;;12.30;;
12896;SDS011;6516;35.028;32.372;2023-04-25T00:35:14;18.83;;;12.30;;
12896;SDS011;6516;35.028;32.372;2023-04-25T00:37:41;18.70;;;12.73;;
12896;SDS011;6516;35.028;32.372;2023-04-25T00:40:10;25.88;;;12.63;;
12896;SDS011;6516;35.028;32.372;2023-04-25T00:42:39;19.77;;;12.75;;
12896;SDS011;6516;35.028;32.372;2023-04-25T00:45:08;20.58;;;13.18;;
12896;SDS011;6516;35.028;32.372;2023-04-25T00:47:40;20.88;;;13.45;;
12896;SDS011;6516;35.028;32.372;2023-04-25T00:50:09;19.47;;;13.90;;
12896;SDS011;6516;35.028;32.372;2023-04-25T00:52:37;19.33;;;13.85;;
12896;SDS011;6516;35.028;32.372;2023-04-25T00:55:07;19.67;;;13.38;;
12896;SDS011;6516;35.028;32.372;2023-04-25T00:57:37;20.17;;;13.48;;
12896;SDS011;6516;35.028;32.372;2023-04-25T01:00:07;19.48;;;12.88;;
12896;SDS011;6516;35.028;32.372;2023-04-25T01:02:38;21.67;;;13.50;;
12896;SDS011;6516;35.028;32.372;2023-04-25T01:05:07;21.20;;;14.23;;
12896;SDS011;6516;35.028;32.372;2023-04-25T01:07:35;18.58;;;13.25;;
12896;SDS011;6516;35.028;32.372;2023-04-25T01:10:04;21.35;;;13.35;;
12896;SDS011;6516;35.028;32.372;2023-04-25T01:12:33;20.13;;;12.85;;
12896;SDS011;6516;35.028;32.372;2023-04-25T01:15:03;20.87;;;13.27;;
12896;SDS011;6516;35.028;32.372;2023-04-25T01:17:32;19.40;;;12.10;;
12896;SDS011;6516;35.028;32.372;2023-04-25T01:20:02;18.55;;;12.05;;
12896;SDS011;6516;35.028;32.372;2023-04-25T01:22:34;20.10;;;12.27;;
12896;SDS011;6516;35.028;32.372;2023-04-25T01:25:02;19.98;;;12.57;;
12896;SDS011;6516;35.028;32.372;2023-04-25T01:27:31;19.30;;;12.20;;
12896;SDS011;6516;35.028;32.372;2023-04-25T01:29:59;20.48;;;12.15;;
12896;SDS011;6516;35.028;32.372;2023-04-25T01:32:27;18.48;;;11.90;;
12896;SDS011;6516;35.028;32.372;2023-04-25T01:34:57;18.27;;;12.10;;
12896;SDS011;6516;35.028;32.372;2023-04-25T01:37:24;17.45;;;12.20;;
12896;SDS011;6516;35.028;32.372;2023-04-25T01:39:53;20.40;;;11.00;;
12896;SDS011;6516;35.028;32.372;2023-04-25T01:42:21;17.52;;;10.90;;
12896;SDS011;6516;35.028;32.372;2023-04-25T01:44:49;17.77;;;11.35;;
12896;SDS011;6516;35.028;32.372;2023-04-25T01:47:17;20.60;;;11.95;;
12896;SDS011;6516;35.028;32.372;2023-04-25T01:49:45;17.08;;;11.10;;
12896;SDS011;6516;35.028;32.372;2023-04-25T01:52:12;17.93;;;10.30;;
12896;SDS011;6516;35.028;32.372;2023-04-25T01:54:41;15.85;;;10.10;;
12896;SDS011;6516;35.028;32.372;2023-04-25T01:57:11;13.23;;;9.93;;
12896;SDS011;6516;35.028;32.372;2023-04-25T01:59:39;17.00;;;11.07;;
12896;SDS011;6516;35.028;32.372;2023-04-25T02:02:08;18.30;;;11.32;;
12896;SDS011;6516;35.028;32.372;2023-04-25T02:04:35;17.23;;;11.37;;
12896;SDS011;6516;35.028;32.372;2023-04-25T02:07:03;17.83;;;10.80;;
12896;SDS011;6516;35.028;32.372;2023-04-25T02:09:31;20.05;;;11.77;;
12896;SDS011;6516;35.028;32.372;2023-04-25T02:11:59;16.80;;;11.77;;
12896;SDS011;6516;35.028;32.372;2023-04-25T02:14:28;19.48;;;12.68;;
12896;SDS011;6516;35.028;32.372;2023-04-25T02:16:56;19.67;;;13.30;;
12896;SDS011;6516;35.028;32.372;2023-04-25T02:19:24;19.30;;;12.07;;
12896;SDS011;6516;35.028;32.372;2023-04-25T02:21:51;21.73;;;12.25;;
12896;SDS011;6516;35.028;32.372;2023-04-25T02:24:19;19.42;;;12.10;;
12896;SDS011;6516;35.028;32.372;2023-04-25T02:26:47;18.48;;;11.27;;
12896;SDS011;6516;35.028;32.372;2023-04-25T02:29:15;19.90;;;10.90;;
12896;SDS011;6516;35.028;32.372;2023-04-25T02:31:45;16.42;;;10.15;;
12896;SDS011;6516;35.028;32.372;2023-04-25T02:34:12;16.02;;;10.02;;
12896;SDS011;6516;35.028;32.372;2023-04-25T02:36:40;15.00;;;10.18;;
12896;SDS011;6516;35.028;32.372;2023-04-25T02:39:08;16.80;;;9.60;;
12896;SDS011;6516;35.028;32.372;2023-04-25T02:41:36;13.70;;;9.23;;
12896;SDS011;6516;35.028;32.372;2023-04-25T02:44:03;13.27;;;9.88;;
12896;SDS011;6516;35.028;32.372;2023-04-25T02:46:31;16.58;;;10.18;;
12896;SDS011;6516;35.028;32.372;2023-04-25T02:49:01;11.95;;;9.68;;
12896;SDS011;6516;35.028;32.372;2023-04-25T02:51:28;16.45;;;10.02;;
12896;SDS011;6516;35.028;32.372;2023-04-25T02:53:58;15.53;;;9.53;;
12896;SDS011;6516;35.028;32.372;2023-04-25T02:56:26;12.63;;;9.15;;
12896;SDS011;6516;35.028;32.372;2023-04-25T02:58:53;16.67;;;9.77;;
12896;SDS011;6516;35.028;32.372;2023-04-25T03:01:21;15.77;;;9.48;;
12896;SDS011;6516;35.028;32.372;2023-04-25T03:03:49;15.52;;;9.73;;
12896;SDS011;6516;35.028;32.372;2023-04-25T03:06:18;12.97;;;9.33;;
12896;SDS011;6516;35.028;32.372;2023-04-25T03:08:46;22.38;;;11.30;;
12896;SDS011;6516;35.028;32.372;2023-04-25T03:11:13;16.38;;;10.38;;
12896;SDS011;6516;35.028;32.372;2023-04-25T03:13:41;19.30;;;11.10;;
12896;SDS011;6516;35.028;32.372;2023-04-25T03:16:11;16.38;;;9.88;;
12896;SDS011;6516;35.028;32.372;2023-04-25T03:18:39;18.83;;;10.33;;
12896;SDS011;6516;35.028;32.372;2023-04-25T03:21:06;19.38;;;10.38;;
12896;SDS011;6516;35.028;32.372;2023-04-25T03:23:36;14.25;;;10.00;;
12896;SDS011;6516;35.028;32.372;2023-04-25T03:26:03;17.08;;;9.80;;
12896;SDS011;6516;35.028;32.372;2023-04-25T03:28:31;20.98;;;10.77;;
12896;SDS011;6516;35.028;32.372;2023-04-25T03:30:59;19.53;;;11.57;;
12896;SDS011;6516;35.028;32.372;2023-04-25T03:33:27;25.90;;;11.93;;
12896;SDS011;6516;35.028;32.372;2023-04-25T03:35:55;20.98;;;10.43;;
12896;SDS011;6516;35.028;32.372;2023-04-25T03:38:22;17.92;;;10.52;;
12896;SDS011;6516;35.028;32.372;2023-04-25T03:40:51;22.70;;;10.60;;
12896;SDS011;6516;35.028;32.372;2023-04-25T03:43:19;14.70;;;9.73;;
12896;SDS011;6516;35.028;32.372;2023-04-25T03:45:47;18.00;;;10.30;;
12896;SDS011;6516;35.028;32.372;2023-04-25T03:48:15;16.83;;;9.45;;
12896;SDS011;6516;35.028;32.372;2023-04-25T03:50:42;14.95;;;10.10;;
12896;SDS011;6516;35.028;32.372;2023-04-25T03:53:10;19.48;;;10.30;;
12896;SDS011;6516;35.028;32.372;2023-04-25T03:55:38;19.33;;;9.63;;
12896;SDS011;6516;35.028;32.372;2023-04-25T03:58:07;17.33;;;10.48;;
12896;SDS011;6516;35.028;32.372;2023-04-25T04:00:35;15.93;;;9.70;;
12896;SDS011;6516;35.028;32.372;2023-04-25T04:03:03;17.65;;;9.55;;
12896;SDS011;6516;35.028;32.372;2023-04-25T04:05:31;16.08;;;9.05;;
12896;SDS011;6516;35.028;32.372;2023-04-25T04:07:58;14.67;;;8.70;;
12896;SDS011;6516;35.028;32.372;2023-04-25T04:10:26;16.77;;;9.45;;
12896;SDS011;6516;35.028;32.372;2023-04-25T04:12:54;15.25;;;8.43;;
12896;SDS011;6516;35.028;32.372;2023-04-25T04:15:23;20.23;;;8.43;;
12896;SDS011;6516;35.028;32.372;2023-04-25T04:17:51;11.90;;;8.07;;
12896;SDS011;6516;35.028;32.372;2023-04-25T04:20:19;17.70;;;8.20;;
12896;SDS011;6516;35.028;32.372;2023-04-25T04:22:47;12.13;;;7.85;;
12896;SDS011;6516;35.028;32.372;2023-04-25T04:25:15;15.13;;;7.47;;
12896;SDS011;6516;35.028;32.372;2023-04-25T04:27:43;14.35;;;7.78;;
12896;SDS011;6516;35.028;32.372;2023-04-25T04:30:11;14.60;;;8.02;;
12896;SDS011;6516;35.028;32.372;2023-04-25T04:32:41;11.83;;;7.93;;
12896;SDS011;6516;35.028;32.372;2023-04-25T04:35:08;14.82;;;8.35;;
12896;SDS011;6516;35.028;32.372;2023-04-25T04:37:36;11.93;;;6.95;;
12896;SDS011;6516;35.028;32.372;2023-04-25T04:40:05;11.40;;;6.60;;
12896;SDS011;6516;35.028;32.372;2023-04-25T04:42:35;10.93;;;6.45;;
12896;SDS011;6516;35.028;32.372;2023-04-25T04:45:03;12.80;;;6.87;;
12896;SDS011;6516;35.028;32.372;2023-04-25T04:47:32;10.48;;;6.72;;
12896;SDS011;6516;35.028;32.372;2023-04-25T04:50:03;10.68;;;6.70;;
12896;SDS011;6516;35.028;32.372;2023-04-25T04:52:33;12.57;;;6.47;;
12896;SDS011;6516;35.028;32.372;2023-04-25T04:55:01;12.52;;;6.18;;
12896;SDS011;6516;35.028;32.372;2023-04-25T04:57:29;13.73;;;6.20;;
12896;SDS011;6516;35.028;32.372;2023-04-25T04:59:58;11.15;;;5.60;;
12896;SDS011;6516;35.028;32.372;2023-04-25T05:02:26;10.80;;;5.72;;
12896;SDS011;6516;35.028;32.372;2023-04-25T05:04:54;12.25;;;5.60;;
12896;SDS011;6516;35.028;32.372;2023-04-25T05:07:24;11.40;;;5.68;;
12896;SDS011;6516;35.028;32.372;2023-04-25T05:09:52;11.40;;;5.17;;
12896;SDS011;6516;35.028;32.372;2023-04-25T05:12:20;11.60;;;5.05;;
12896;SDS011;6516;35.028;32.372;2023-04-25T05:14:47;12.50;;;5.40;;
12896;SDS011;6516;35.028;32.372;2023-04-25T05:17:15;9.07;;;4.85;;
12896;SDS011;6516;35.028;32.372;2023-04-25T05:19:43;9.07;;;4.90;;
12896;SDS011;6516;35.028;32.372;2023-04-25T05:22:11;11.27;;;5.10;;
12896;SDS011;6516;35.028;32.372;2023-04-25T05:24:40;10.77;;;5.07;;
12896;SDS011;6516;35.028;32.372;2023-04-25T05:27:08;10.43;;;5.13;;
12896;SDS011;6516;35.028;32.372;2023-04-25T05:29:37;10.20;;;4.85;;
12896;SDS011;6516;35.028;32.372;2023-04-25T05:32:05;9.90;;;4.75;;
12896;SDS011;6516;35.028;32.372;2023-04-25T05:34:34;12.53;;;5.07;;
12896;SDS011;6516;35.028;32.372;2023-04-25T05:37:02;13.75;;;5.45;;
12896;SDS011;6516;35.028;32.372;2023-04-25T05:39:30;8.68;;;4.45;;
12896;SDS011;6516;35.028;32.372;2023-04-25T05:41:59;9.90;;;4.57;;
12896;SDS011;6516;35.028;32.372;2023-04-25T05:44:29;10.38;;;4.75;;
12896;SDS011;6516;35.028;32.372;2023-04-25T05:46:57;10.40;;;4.70;;
12896;SDS011;6516;35.028;32.372;2023-04-25T05:49:25;8.63;;;4.32;;
12896;SDS011;6516;35.028;32.372;2023-04-25T05:51:52;11.18;;;4.50;;
12896;SDS011;6516;35.028;32.372;2023-04-25T05:54:20;9.25;;;4.32;;
12896;SDS011;6516;35.028;32.372;2023-04-25T05:56:48;7.53;;;4.13;;
12896;SDS011;6516;35.028;32.372;2023-04-25T05:59:17;7.13;;;4.03;;
12896;SDS011;6516;35.028;32.372;2023-04-25T06:01:45;7.93;;;4.38;;
12896;SDS011;6516;35.028;32.372;2023-04-25T06:04:13;9.25;;;4.68;;
12896;SDS011;6516;35.028;32.372;2023-04-25T06:06:41;9.18;;;4.55;;
12896;SDS011;6516;35.028;32.372;2023-04-25T06:09:08;8.10;;;4.47;;
12896;SDS011;6516;35.028;32.372;2023-04-25T06:11:36;10.83;;;4.43;;
12896;SDS011;6516;35.028;32.372;2023-04-25T06:14:04;8.98;;;4.45;;
12896;SDS011;6516;35.028;32.372;2023-04-25T06:16:34;8.55;;;4.35;;
12896;SDS011;6516;35.028;32.372;2023-04-25T06:19:01;11.93;;;5.30;;
12896;SDS011;6516;35.028;32.372;2023-04-25T06:21:29;9.93;;;4.43;;
12896;SDS011;6516;35.028;32.372;2023-04-25T06:23:58;7.93;;;4.50;;
12896;SDS011;6516;35.028;32.372;2023-04-25T06:26:25;8.15;;;4.25;;
12896;SDS011;6516;35.028;32.372;2023-04-25T06:28:53;10.60;;;4.60;;
12896;SDS011;6516;35.028;32.372;2023-04-25T06:31:21;8.73;;;4.35;;
12896;SDS011;6516;35.028;32.372;2023-04-25T06:33:50;10.02;;;4.35;;
12896;SDS011;6516;35.028;32.372;2023-04-25T06:36:20;9.03;;;4.50;;
12896;SDS011;6516;35.028;32.372;2023-04-25T06:38:50;10.10;;;4.47;;
12896;SDS011;6516;35.028;32.372;2023-04-25T06:41:18;10.02;;;4.40;;
12896;SDS011;6516;35.028;32.372;2023-04-25T06:43:45;12.70;;;4.80;;
12896;SDS011;6516;35.028;32.372;2023-04-25T06:46:13;8.85;;;4.10;;
12896;SDS011;6516;35.028;32.372;2023-04-25T06:48:41;9.77;;;4.20;;
12896;SDS011;6516;35.028;32.372;2023-04-25T06:51:10;11.25;;;4.40;;
12896;SDS011;6516;35.028;32.372;2023-04-25T06:53:39;11.93;;;4.43;;
12896;SDS011;6516;35.028;32.372;2023-04-25T06:56:06;11.35;;;4.55;;
12896;SDS011;6516;35.028;32.372;2023-04-25T06:58:34;10.57;;;4.18;;
12896;SDS011;6516;35.028;32.372;2023-04-25T07:01:02;10.40;;;4.43;;
12896;SDS011;6516;35.028;32.372;2023-04-25T07:03:30;8.52;;;4.15;;
12896;SDS011;6516;35.028;32.372;2023-04-25T07:05:58;9.18;;;4.25;;
12896;SDS011;6516;35.028;32.372;2023-04-25T07:08:27;9.00;;;4.28;;
12896;SDS011;6516;35.028;32.372;2023-04-25T07:10:56;10.43;;;4.13;;
12896;SDS011;6516;35.028;32.372;2023-04-25T07:13:24;10.93;;;4.27;;
12896;SDS011;6516;35.028;32.372;2023-04-25T07:15:51;9.75;;;4.38;;
12896;SDS011;6516;35.028;32.372;2023-04-25T07:18:20;6.57;;;4.13;;
12896;SDS011;6516;35.028;32.372;2023-04-25T07:20:47;8.55;;;3.97;;
12896;SDS011;6516;35.028;32.372;2023-04-25T07:23:15;13.80;;;4.38;;
12896;SDS011;6516;35.028;32.372;2023-04-25T07:25:44;7.93;;;4.30;;
12896;SDS011;6516;35.028;32.372;2023-04-25T07:28:12;11.80;;;4.20;;
12896;SDS011;6516;35.028;32.372;2023-04-25T07:30:40;8.85;;;4.10;;
12896;SDS011;6516;35.028;32.372;2023-04-25T07:33:08;10.68;;;5.00;;
12896;SDS011;6516;35.028;32.372;2023-04-25T07:35:35;8.48;;;4.40;;
12896;SDS011;6516;35.028;32.372;2023-04-25T07:38:03;9.37;;;4.20;;
12896;SDS011;6516;35.028;32.372;2023-04-25T07:40:31;11.38;;;4.40;;
12896;SDS011;6516;35.028;32.372;2023-04-25T07:43:02;10.93;;;3.97;;
12896;SDS011;6516;35.028;32.372;2023-04-25T07:45:29;9.65;;;4.30;;
12896;SDS011;6516;35.028;32.372;2023-04-25T07:47:57;10.90;;;4.00;;
12896;SDS011;6516;35.028;32.372;2023-04-25T07:50:25;9.80;;;3.80;;
12896;SDS011;6516;35.028;32.372;2023-04-25T07:52:53;11.27;;;4.00;;
12896;SDS011;6516;35.028;32.372;2023-04-25T07:55:20;10.70;;;4.13;;
12896;SDS011;6516;35.028;32.372;2023-04-25T07:57:48;9.80;;;4.05;;
12896;SDS011;6516;35.028;32.372;2023-04-25T08:00:18;8.80;;;3.78;;
12896;SDS011;6516;35.028;32.372;2023-04-25T08:02:46;9.13;;;4.40;;
12896;SDS011;6516;35.028;32.372;2023-04-25T08:05:16;7.00;;;3.70;;
12896;SDS011;6516;35.028;32.372;2023-04-25T08:07:44;8.13;;;3.53;;
12896;SDS011;6516;35.028;32.372;2023-04-25T08:10:11;7.78;;;4.00;;
12896;SDS011;6516;35.028;32.372;2023-04-25T08:12:39;8.85;;;4.20;;
12896;SDS011;6516;35.028;32.372;2023-04-25T08:15:08;11.97;;;4.20;;
12896;SDS011;6516;35.028;32.372;2023-04-25T08:17:38;8.77;;;4.38;;
12896;SDS011;6516;35.028;32.372;2023-04-25T08:20:06;9.65;;;4.00;;
12896;SDS011;6516;35.028;32.372;2023-04-25T08:22:35;9.75;;;4.20;;
12896;SDS011;6516;35.028;32.372;2023-04-25T08:25:03;11.32;;;4.40;;
12896;SDS011;6516;35.028;32.372;2023-04-25T08:27:31;8.53;;;3.70;;
12896;SDS011;6516;35.028;32.372;2023-04-25T08:30:00;10.98;;;4.15;;
12896;SDS011;6516;35.028;32.372;2023-04-25T08:32:32;9.45;;;4.30;;
12896;SDS011;6516;35.028;32.372;2023-04-25T08:35:04;10.05;;;4.28;;
12896;SDS011;6516;35.028;32.372;2023-04-25T08:37:33;9.80;;;4.18;;
12896;SDS011;6516;35.028;32.372;2023-04-25T08:40:01;8.27;;;3.97;;
12896;SDS011;6516;35.028;32.372;2023-04-25T08:42:33;6.72;;;3.65;;
12896;SDS011;6516;35.028;32.372;2023-04-25T08:45:01;7.65;;;3.50;;
12896;SDS011;6516;35.028;32.372;2023-04-25T08:47:30;9.50;;;3.83;;
12896;SDS011;6516;35.028;32.372;2023-04-25T08:50:02;10.75;;;3.85;;
12896;SDS011;6516;35.028;32.372;2023-04-25T08:52:35;7.10;;;3.77;;
12896;SDS011;6516;35.028;32.372;2023-04-25T08:55:06;8.80;;;3.60;;
12896;SDS011;6516;35.028;32.372;2023-04-25T08:57:36;8.95;;;3.50;;
12896;SDS011;6516;35.028;32.372;2023-04-25T09:00:05;6.88;;;3.70;;
12896;SDS011;6516;35.028;32.372;2023-04-25T09:02:34;7.05;;;3.38;;
12896;SDS011;6516;35.028;32.372;2023-04-25T09:05:03;7.53;;;3.13;;
12896;SDS011;6516;35.028;32.372;2023-04-25T09:07:34;7.13;;;3.50;;
12896;SDS011;6516;35.028;32.372;2023-04-25T09:10:02;6.28;;;3.30;;
12896;SDS011;6516;35.028;32.372;2023-04-25T09:12:31;10.50;;;3.45;;
12896;SDS011;6516;35.028;32.372;2023-04-25T09:15:03;7.60;;;3.28;;
12896;SDS011;6516;35.028;32.372;2023-04-25T09:17:33;8.70;;;3.40;;
12896;SDS011;6516;35.028;32.372;2023-04-25T09:20:07;8.20;;;3.30;;
12896;SDS011;6516;35.028;32.372;2023-04-25T09:22:37;7.90;;;3.50;;
12896;SDS011;6516;35.028;32.372;2023-04-25T09:25:08;7.53;;;3.70;;
12896;SDS011;6516;35.028;32.372;2023-04-25T09:27:37;10.98;;;3.60;;
12896;SDS011;6516;35.028;32.372;2023-04-25T09:30:17;8.30;;;3.63;;
12896;SDS011;6516;35.028;32.372;2023-04-25T09:32:45;8.10;;;3.42;;
12896;SDS011;6516;35.028;32.372;2023-04-25T09:35:24;10.07;;;3.45;;
12896;SDS011;6516;35.028;32.372;2023-04-25T09:37:53;7.63;;;3.28;;
12896;SDS011;6516;35.028;32.372;2023-04-25T09:40:22;9.07;;;3.22;;
12896;SDS011;6516;35.028;32.372;2023-04-25T09:42:49;8.87;;;3.70;;
12896;SDS011;6516;35.028;32.372;2023-04-25T09:45:17;7.10;;;3.15;;
12896;SDS011;6516;35.028;32.372;2023-04-25T09:47:46;6.03;;;2.90;;
12896;SDS011;6516;35.028;32.372;2023-04-25T09:50:15;8.45;;;3.10;;
12896;SDS011;6516;35.028;32.372;2023-04-25T09:52:46;5.07;;;3.03;;
12896;SDS011;6516;35.028;32.372;2023-04-25T09:55:31;7.57;;;3.00;;
12896;SDS011;6516;35.028;32.372;2023-04-25T09:58:03;8.63;;;3.15;;
12896;SDS011;6516;35.028;32.372;2023-04-25T10:00:33;6.40;;;3.15;;
12896;SDS011;6516;35.028;32.372;2023-04-25T10:03:01;7.68;;;3.40;;
12896;SDS011;6516;35.028;32.372;2023-04-25T10:05:30;8.82;;;3.20;;
12896;SDS011;6516;35.028;32.372;2023-04-25T10:08:04;8.07;;;3.23;;
12896;SDS011;6516;35.028;32.372;2023-04-25T10:10:34;9.80;;;2.83;;
12896;SDS011;6516;35.028;32.372;2023-04-25T10:13:04;5.93;;;2.97;;
12896;SDS011;6516;35.028;32.372;2023-04-25T10:15:34;7.45;;;3.25;;
12896;SDS011;6516;35.028;32.372;2023-04-25T10:18:02;8.65;;;3.45;;
12896;SDS011;6516;35.028;32.372;2023-04-25T10:20:31;7.30;;;3.30;;
12896;SDS011;6516;35.028;32.372;2023-04-25T10:23:06;7.05;;;3.30;;
12896;SDS011;6516;35.028;32.372;2023-04-25T10:25:40;7.15;;;3.15;;
12896;SDS011;6516;35.028;32.372;2023-04-25T10:28:09;6.45;;;2.95;;
12896;SDS011;6516;35.028;32.372;2023-04-25T10:30:37;6.43;;;2.97;;
12896;SDS011;6516;35.028;32.372;2023-04-25T10:33:29;7.47;;;3.23;;
12896;SDS011;6516;35.028;32.372;2023-04-25T10:36:08;9.15;;;3.70;;
12896;SDS011;6516;35.028;32.372;2023-04-25T10:38:42;7.78;;;2.92;;
12896;SDS011;6516;35.028;32.372;2023-04-25T10:41:11;8.70;;;3.25;;
12896;SDS011;6516;35.028;32.372;2023-04-25T10:43:40;7.47;;;3.00;;
12896;SDS011;6516;35.028;32.372;2023-04-25T10:46:13;7.03;;;3.10;;
12896;SDS011;6516;35.028;32.372;2023-04-25T10:48:46;8.63;;;3.30;;
12896;SDS011;6516;35.028;32.372;2023-04-25T10:51:16;6.88;;;3.47;;
12896;SDS011;6516;35.028;32.372;2023-04-25T10:53:57;7.28;;;3.20;;
12896;SDS011;6516;35.028;32.372;2023-04-25T10:56:28;8.85;;;3.03;;
12896;SDS011;6516;35.028;32.372;2023-04-25T10:59:04;8.43;;;3.30;;
12896;SDS011;6516;35.028;32.372;2023-04-25T11:01:36;9.48;;;3.17;;
12896;SDS011;6516;35.028;32.372;2023-04-25T11:04:05;9.10;;;3.17;;
12896;SDS011;6516;35.028;32.372;2023-04-25T11:06:50;8.63;;;3.35;;
12896;SDS011;6516;35.028;32.372;2023-04-25T11:09:38;9.18;;;3.53;;
12896;SDS011;6516;35.028;32.372;2023-04-25T11:12:07;8.13;;;3.80;;
12896;SDS011;6516;35.028;32.372;2023-04-25T11:14:38;6.22;;;3.08;;
12896;SDS011;6516;35.028;32.372;2023-04-25T11:17:06;7.15;;;2.88;;
12896;SDS011;6516;35.028;32.372;2023-04-25T11:19:34;7.47;;;3.33;;
12896;SDS011;6516;35.028;32.372;2023-04-25T11:22:02;5.72;;;3.10;;
12896;SDS011;6516;35.028;32.372;2023-04-25T11:24:32;8.73;;;2.93;;
12896;SDS011;6516;35.028;32.372;2023-04-25T11:27:03;6.95;;;3.22;;
12896;SDS011;6516;35.028;32.372;2023-04-25T11:29:33;9.57;;;3.00;;
12896;SDS011;6516;35.028;32.372;2023-04-25T11:32:01;8.68;;;3.40;;
12896;SDS011;6516;35.028;32.372;2023-04-25T11:34:30;8.40;;;3.10;;
12896;SDS011;6516;35.028;32.372;2023-04-25T11:36:59;6.53;;;3.00;;
12896;SDS011;6516;35.028;32.372;2023-04-25T11:39:27;8.18;;;3.13;;
12896;SDS011;6516;35.028;32.372;2023-04-25T11:41:55;6.90;;;2.90;;
12896;SDS011;6516;35.028;32.372;2023-04-25T11:44:24;7.85;;;2.80;;
12896;SDS011;6516;35.028;32.372;2023-04-25T11:46:53;9.15;;;3.10;;
12896;SDS011;6516;35.028;32.372;2023-04-25T11:49:20;9.27;;;3.17;;
12896;SDS011;6516;35.028;32.372;2023-04-25T11:51:50;9.43;;;3.08;;
12896;SDS011;6516;35.028;32.372;2023-04-25T11:54:17;9.30;;;2.95;;
12896;SDS011;6516;35.028;32.372;2023-04-25T11:56:45;9.93;;;3.15;;
12896;SDS011;6516;35.028;32.372;2023-04-25T11:59:13;7.00;;;3.00;;
12896;SDS011;6516;35.028;32.372;2023-04-25T12:01:47;6.43;;;2.90;;
12896;SDS011;6516;35.028;32.372;2023-04-25T12:04:16;11.32;;;3.03;;
12896;SDS011;6516;35.028;32.372;2023-04-25T12:06:49;7.88;;;3.00;;
12896;SDS011;6516;35.028;32.372;2023-04-25T12:09:18;7.78;;;2.80;;
12896;SDS011;6516;35.028;32.372;2023-04-25T12:11:48;7.28;;;2.80;;
12896;SDS011;6516;35.028;32.372;2023-04-25T12:14:21;7.73;;;2.80;;
12896;SDS011;6516;35.028;32.372;2023-04-25T12:16:54;6.88;;;3.08;;
12896;SDS011;6516;35.028;32.372;2023-04-25T12:19:23;6.85;;;2.83;;
12896;SDS011;6516;35.028;32.372;2023-04-25T12:21:52;6.95;;;2.80;;
12896;SDS011;6516;35.028;32.372;2023-04-25T12:24:24;6.25;;;2.47;;
12896;SDS011;6516;35.028;32.372;2023-04-25T12:26:53;6.27;;;2.50;;
12896;SDS011;6516;35.028;32.372;2023-04-25T12:29:26;5.82;;;2.50;;
12896;SDS011;6516;35.028;32.372;2023-04-25T12:31:58;6.50;;;2.58;;
12896;SDS011;6516;35.028;32.372;2023-04-25T12:34:27;6.88;;;2.67;;
12896;SDS011;6516;35.028;32.372;2023-04-25T12:36:56;6.80;;;2.53;;
12896;SDS011;6516;35.028;32.372;2023-04-25T12:39:24;5.60;;;2.43;;
12896;SDS011;6516;35.028;32.372;2023-04-25T12:41:52;6.55;;;2.80;;
12896;SDS011;6516;35.028;32.372;2023-04-25T12:44:20;7.00;;;2.50;;
12896;SDS011;6516;35.028;32.372;2023-04-25T12:46:48;7.88;;;3.03;;
12896;SDS011;6516;35.028;32.372;2023-04-25T12:49:18;6.45;;;2.55;;
12896;SDS011;6516;35.028;32.372;2023-04-25T12:51:45;6.07;;;2.67;;
12896;SDS011;6516;35.028;32.372;2023-04-25T12:54:13;6.85;;;2.70;;
12896;SDS011;6516;35.028;32.372;2023-04-25T12:56:41;7.63;;;2.58;;
12896;SDS011;6516;35.028;32.372;2023-04-25T12:59:08;8.18;;;3.03;;
12896;SDS011;6516;35.028;32.372;2023-04-25T13:01:36;8.43;;;2.85;;
12896;SDS011;6516;35.028;32.372;2023-04-25T13:04:07;9.93;;;3.07;;
12896;SDS011;6516;35.028;32.372;2023-04-25T13:06:36;6.80;;;2.97;;
12896;SDS011;6516;35.028;32.372;2023-04-25T13:09:04;8.57;;;2.88;;
12896;SDS011;6516;35.028;32.372;2023-04-25T13:11:32;6.82;;;2.90;;
12896;SDS011;6516;35.028;32.372;2023-04-25T13:14:00;6.80;;;2.75;;
12896;SDS011;6516;35.028;32.372;2023-04-25T13:16:28;8.00;;;3.00;;
12896;SDS011;6516;35.028;32.372;2023-04-25T13:18:56;7.30;;;3.10;;
12896;SDS011;6516;35.028;32.372;2023-04-25T13:21:23;6.55;;;2.50;;
12896;SDS011;6516;35.028;32.372;2023-04-25T13:23:53;8.38;;;2.95;;
12896;SDS011;6516;35.028;32.372;2023-04-25T13:26:21;8.80;;;3.10;;
12896;SDS011;6516;35.028;32.372;2023-04-25T13:28:49;8.13;;;3.30;;
12896;SDS011;6516;35.028;32.372;2023-04-25T13:31:16;7.55;;;3.20;;
12896;SDS011;6516;35.028;32.372;2023-04-25T13:33:44;8.40;;;3.10;;
12896;SDS011;6516;35.028;32.372;2023-04-25T13:36:12;8.45;;;3.10;;
12896;SDS011;6516;35.028;32.372;2023-04-25T13:38:40;7.28;;;3.20;;
12896;SDS011;6516;35.028;32.372;2023-04-25T13:41:10;8.43;;;3.10;;
12896;SDS011;6516;35.028;32.372;2023-04-25T13:43:42;6.05;;;2.90;;
12896;SDS011;6516;35.028;32.372;2023-04-25T13:46:10;7.30;;;3.03;;
12896;SDS011;6516;35.028;32.372;2023-04-25T13:48:38;8.93;;;3.08;;
12896;SDS011;6516;35.028;32.372;2023-04-25T13:51:11;5.70;;;3.08;;
12896;SDS011;6516;35.028;32.372;2023-04-25T13:53:42;8.00;;;3.30;;
12896;SDS011;6516;35.028;32.372;2023-04-25T13:56:12;5.95;;;3.15;;
12896;SDS011;6516;35.028;32.372;2023-04-25T13:58:40;6.97;;;3.30;;
12896;SDS011;6516;35.028;32.372;2023-04-25T14:01:08;8.65;;;3.08;;
12896;SDS011;6516;35.028;32.372;2023-04-25T14:03:35;7.40;;;3.22;;
12896;SDS011;6516;35.028;32.372;2023-04-25T14:06:03;5.80;;;3.03;;
12896;SDS011;6516;35.028;32.372;2023-04-25T14:08:32;8.35;;;3.10;;
12896;SDS011;6516;35.028;32.372;2023-04-25T14:11:00;8.82;;;3.40;;
12896;SDS011;6516;35.028;32.372;2023-04-25T14:13:29;10.40;;;3.70;;
12896;SDS011;6516;35.028;32.372;2023-04-25T14:15:57;10.45;;;3.70;;
12896;SDS011;6516;35.028;32.372;2023-04-25T14:18:25;8.10;;;3.57;;
12896;SDS011;6516;35.028;32.372;2023-04-25T14:20:53;6.78;;;3.92;;
12896;SDS011;6516;35.028;32.372;2023-04-25T14:23:20;9.88;;;3.60;;
12896;SDS011;6516;35.028;32.372;2023-04-25T14:25:48;7.28;;;3.20;;
12896;SDS011;6516;35.028;32.372;2023-04-25T14:28:16;8.35;;;3.45;;
12896;SDS011;6516;35.028;32.372;2023-04-25T14:30:45;9.73;;;3.90;;
12896;SDS011;6516;35.028;32.372;2023-04-25T14:33:13;8.80;;;3.70;;
12896;SDS011;6516;35.028;32.372;2023-04-25T14:35:41;7.95;;;3.70;;
12896;SDS011;6516;35.028;32.372;2023-04-25T14:38:08;9.60;;;4.00;;
12896;SDS011;6516;35.028;32.372;2023-04-25T14:40:36;10.20;;;3.80;;
12896;SDS011;6516;35.028;32.372;2023-04-25T14:43:04;9.13;;;3.93;;
12896;SDS011;6516;35.028;32.372;2023-04-25T14:45:33;8.07;;;3.95;;
12896;SDS011;6516;35.028;32.372;2023-04-25T14:48:02;9.23;;;3.72;;